Time;durP1;ratioP1;P1;durP2;ratioP2;P2;SDS_P1;SDS_P2;PMS_P1;PMS_P2;Temp;Humidity;BMP_temperature;BMP_pressure;BME280_temperature;BME280_humidity;BME280_pressure;Samples;Min_cycle;Max_cycle;Signal;HPM_P1;HPM_P2
2021/09/14 04:15:31;;;;;;;9.48;7.90;;;;;;;13.73;100.00;98647.16;5928523;23;20053;-77
2021/09/14 04:17:56;;;;;;;11.23;7.03;;;;;;;13.74;100.00;98643.66;4975016;28;20404;-78
2021/09/14 04:20:22;;;;;;;8.45;7.50;;;;;;;13.75;100.00;98650.56;4975248;28;20027;-77
2021/09/14 04:22:47;;;;;;;7.82;7.00;;;;;;;13.76;100.00;98647.06;4974926;28;20447;-77
2021/09/14 04:25:13;;;;;;;8.50;6.88;;;;;;;13.81;100.00;98645.16;4974000;28;20027;-77
2021/09/14 04:27:39;;;;;;;7.55;6.85;;;;;;;13.74;100.00;98647.13;4974394;28;20023;-77
2021/09/14 04:30:06;;;;;;;8.57;7.35;;;;;;;13.73;100.00;98648.03;4996738;23;20122;-78
2021/09/14 04:32:32;;;;;;;8.48;7.60;;;;;;;13.71;100.00;98643.75;4968447;28;20015;-78
2021/09/14 04:34:57;;;;;;;10.32;7.53;;;;;;;13.69;100.00;98640.38;4962678;28;20051;-78
2021/09/14 04:37:23;;;;;;;12.02;7.68;;;;;;;13.66;100.00;98650.88;4954880;28;20027;-78
2021/09/14 04:39:49;;;;;;;9.23;8.05;;;;;;;13.67;100.00;98653.41;4948069;28;20074;-78
2021/09/14 04:42:14;;;;;;;9.77;8.00;;;;;;;13.63;100.00;98651.81;4935405;29;20059;-78
2021/09/14 04:44:39;;;;;;;9.77;7.85;;;;;;;13.61;100.00;98644.06;4935492;29;20028;-78
2021/09/14 04:47:04;;;;;;;13.35;9.75;;;;;;;13.62;100.00;98648.34;4935570;29;20039;-78
2021/09/14 04:49:30;;;;;;;9.93;7.28;;;;;;;13.62;100.00;98645.75;4935320;29;20034;-78
2021/09/14 04:51:55;;;;;;;9.07;7.90;;;;;;;13.63;100.00;98652.69;4954238;29;20476;-78
2021/09/14 04:54:20;;;;;;;10.07;7.63;;;;;;;13.63;100.00;98652.69;4954600;28;20087;-78
2021/09/14 04:56:46;;;;;;;8.70;7.72;;;;;;;13.63;100.00;98649.19;4954360;29;20058;-78
2021/09/14 04:59:11;;;;;;;8.85;7.78;;;;;;;13.61;100.00;98643.22;4954357;28;20035;-78
2021/09/14 05:01:36;;;;;;;12.60;7.85;;;;;;;13.56;100.00;98648.56;4954153;29;20110;-78
2021/09/14 05:04:02;;;;;;;10.68;8.73;;;;;;;13.57;100.00;98647.66;4946351;28;20032;-78
2021/09/14 05:06:27;;;;;;;9.18;7.25;;;;;;;13.61;100.00;98646.66;4954193;28;20031;-78
2021/09/14 05:08:53;;;;;;;9.20;7.65;;;;;;;13.58;100.00;98638.94;4954148;29;20504;-78
2021/09/14 05:11:18;;;;;;;16.30;7.75;;;;;;;13.60;100.00;98637.16;4954045;28;20023;-78
2021/09/14 05:13:43;;;;;;;8.82;7.55;;;;;;;13.59;100.00;98648.47;4954281;28;20453;-78
2021/09/14 05:16:09;;;;;;;13.50;8.13;;;;;;;13.58;100.00;98638.94;4954292;28;20535;-78
2021/09/14 05:18:34;;;;;;;9.77;7.68;;;;;;;13.60;100.00;98642.34;4954187;29;20036;-78
2021/09/14 05:20:59;;;;;;;12.23;6.85;;;;;;;13.62;100.00;98648.34;4954017;28;20030;-78
2021/09/14 05:23:32;;;;;;;11.43;7.10;;;;;;;13.63;100.00;98642.28;4953837;28;20023;-78
2021/09/14 05:26:03;;;;;;;9.27;7.22;;;;;;;13.61;100.00;98640.59;4954224;28;20079;-78
2021/09/14 05:28:29;;;;;;;11.85;7.95;;;;;;;13.57;100.00;98637.25;4954088;28;20356;-78
2021/09/14 05:30:55;;;;;;;11.50;8.10;;;;;;;13.56;100.00;98632.94;4953887;28;20030;-78
2021/09/14 05:33:20;;;;;;;9.50;7.32;;;;;;;13.59;100.00;98640.66;4950025;28;20540;-78
2021/09/14 05:35:48;;;;;;;10.80;8.38;;;;;;;13.61;100.00;98638.84;4949724;29;20027;-78
2021/09/14 05:38:14;;;;;;;9.65;7.70;;;;;;;13.62;100.00;98644.91;4953566;28;20114;-78
2021/09/14 05:40:42;;;;;;;8.50;7.70;;;;;;;13.74;100.00;98648.88;4953825;28;20027;-78
2021/09/14 05:43:07;;;;;;;8.85;7.43;;;;;;;13.79;100.00;98652.19;4953627;28;20055;-78
2021/09/14 05:45:32;;;;;;;9.98;7.57;;;;;;;13.84;100.00;98650.28;4953895;28;20066;-79
2021/09/14 05:47:58;;;;;;;10.48;7.57;;;;;;;13.81;100.00;98656.41;4954011;28;20054;-79
2021/09/14 05:50:24;;;;;;;7.97;6.88;;;;;;;13.88;100.00;98646.66;4954060;28;20531;-79
2021/09/14 05:52:49;;;;;;;11.52;7.22;;;;;;;13.97;100.00;98661.97;4953561;28;20384;-79
2021/09/14 05:55:14;;;;;;;14.52;7.38;;;;;;;14.34;99.04;98656.34;4953772;29;20031;-79
2021/09/14 05:57:40;;;;;;;8.10;6.78;;;;;;;14.70;96.53;98657.72;4953668;28;20027;-79
2021/09/14 06:00:06;;;;;;;10.18;6.28;;;;;;;15.06;94.18;98656.34;4953991;28;20059;-79
2021/09/14 06:02:31;;;;;;;6.82;6.03;;;;;;;15.43;91.35;98657.53;4944019;28;20376;-79
2021/09/14 06:04:56;;;;;;;8.82;5.85;;;;;;;16.21;87.84;98658.75;4943963;28;20027;-79
2021/09/14 06:07:22;;;;;;;8.63;5.70;;;;;;;17.33;82.12;98659.81;4953388;28;20054;-76
2021/09/14 06:09:47;;;;;;;7.90;5.35;;;;;;;18.28;76.60;98663.03;4953208;28;20023;-76
2021/09/14 06:12:12;;;;;;;7.60;5.15;;;;;;;18.43;74.90;98667.50;4953556;29;20106;-76
2021/09/14 06:14:38;;;;;;;6.30;5.05;;;;;;;18.11;76.20;98671.75;4944113;28;20023;-76
2021/09/14 06:17:03;;;;;;;10.18;4.88;;;;;;;18.61;73.21;98665.66;4934289;29;20031;-76
2021/09/14 06:19:29;;;;;;;8.55;4.75;;;;;;;19.46;71.26;98665.47;4934097;29;20504;-76
2021/09/14 06:21:54;;;;;;;7.13;3.95;;;;;;;19.77;69.07;98669.84;4952624;29;20082;-76
2021/09/14 06:24:19;;;;;;;13.15;4.80;;;;;;;21.48;62.60;98658.66;4946632;28;20051;-76
2021/09/14 06:26:45;;;;;;;5.47;3.67;;;;;;;22.89;58.41;98654.47;4934036;29;20083;-76
2021/09/14 06:29:10;;;;;;;7.85;4.03;;;;;;;23.53;56.26;98650.69;4934066;29;20027;-77
2021/09/14 06:31:35;;;;;;;4.78;3.22;;;;;;;23.99;54.84;98654.44;4934076;29;20035;-77
2021/09/14 06:34:01;;;;;;;9.05;4.00;;;;;;;25.13;50.50;98671.25;4946430;29;20027;-77
2021/09/14 06:36:26;;;;;;;4.55;3.75;;;;;;;24.98;50.01;98661.84;4953261;28;20480;-77
2021/09/14 06:38:52;;;;;;;5.13;3.17;;;;;;;23.63;54.80;98671.19;4953243;29;20132;-77
2021/09/14 06:41:17;;;;;;;9.98;4.10;;;;;;;21.65;60.65;98676.84;4935857;28;20498;-77
2021/09/14 06:43:42;;;;;;;5.28;3.67;;;;;;;22.44;59.41;98669.91;4941742;29;20396;-77
2021/09/14 06:46:08;;;;;;;8.85;3.72;;;;;;;23.31;56.90;98662.00;4951836;29;20031;-77
2021/09/14 06:48:33;;;;;;;5.25;3.78;;;;;;;;;;4944554;28;20107;-77
2021/09/14 06:50:59;;;;;;;7.90;4.57;;;;;;;21.50;61.82;98662.03;4949162;29;20023;-77
2021/09/14 06:53:28;;;;;;;5.07;4.10;;;;;;;20.54;64.93;98676.75;4939681;29;20034;-76
2021/09/14 06:55:54;;;;;;;6.82;4.35;;;;;;;19.71;68.81;98673.69;4953151;28;20071;-77
2021/09/14 06:58:19;;;;;;;9.30;4.72;;;;;;;19.21;70.74;98672.06;4946779;29;20028;-77
2021/09/14 07:00:45;;;;;;;10.43;4.97;;;;;;;19.26;71.29;98670.03;4946395;28;20079;-77
2021/09/14 07:03:10;;;;;;;6.45;4.68;;;;;;;20.05;69.51;98663.84;4939646;29;20032;-77
2021/09/14 07:05:35;;;;;;;8.25;4.80;;;;;;;20.08;68.71;98666.31;4942603;28;20493;-77
2021/09/14 07:08:01;;;;;;;7.85;5.50;;;;;;;18.91;73.11;98668.50;4937153;29;20111;-77
2021/09/14 07:10:26;;;;;;;14.48;4.60;;;;;;;19.21;73.03;98672.06;4937118;29;20032;-78
2021/09/14 07:12:51;;;;;;;5.35;4.38;;;;;;;19.46;71.52;98665.47;4947932;29;20038;-77
2021/09/14 07:15:17;;;;;;;7.93;4.80;;;;;;;20.57;67.90;98668.69;4956256;28;20039;-77
2021/09/14 07:17:43;;;;;;;5.63;4.60;;;;;;;20.84;66.16;98660.03;4956197;28;20034;-77
2021/09/14 07:20:09;;;;;;;9.18;4.78;;;;;;;21.66;63.67;98661.88;4954643;28;20596;-78
2021/09/14 07:22:35;;;;;;;7.25;4.70;;;;;;;22.75;60.01;98648.34;4955931;28;20381;-78
2021/09/14 07:25:00;;;;;;;7.88;4.68;;;;;;;22.91;58.80;98649.94;4943693;28;20027;-78
2021/09/14 07:27:26;;;;;;;7.93;4.28;;;;;;;22.87;59.03;98651.06;4936935;29;20027;-78
2021/09/14 07:29:51;;;;;;;5.07;4.40;;;;;;;24.31;55.26;98646.69;4936532;29;20635;-78
2021/09/14 07:32:17;;;;;;;4.55;4.13;;;;;;;24.54;54.16;98650.25;4937030;29;20497;-78
2021/09/14 07:34:43;;;;;;;5.85;4.18;;;;;;;24.45;53.39;98656.25;4944269;29;20028;-78
2021/09/14 07:37:09;;;;;;;6.45;3.92;;;;;;;24.35;54.28;98662.22;4950030;29;20062;-78
2021/09/14 07:39:34;;;;;;;7.25;4.07;;;;;;;25.40;51.26;98665.56;4939018;28;20024;-78
2021/09/14 07:41:59;;;;;;;5.90;3.42;;;;;;;25.85;50.82;98658.31;4936278;29;20024;-78
2021/09/14 07:44:25;;;;;;;13.95;4.05;;;;;;;26.22;49.01;98657.91;4936528;29;20028;-78
2021/09/14 07:46:50;;;;;;;19.98;12.63;;;;;;;26.64;48.81;98655.25;4936562;29;20449;-78
2021/09/14 07:49:16;;;;;;;6.60;4.82;;;;;;;27.44;46.96;98653.63;4936218;29;20481;-78
2021/09/14 07:51:41;;;;;;;10.55;4.60;;;;;;;26.03;48.39;98649.81;4936210;29;20469;-78
2021/09/14 07:54:07;;;;;;;4.10;3.67;;;;;;;25.18;51.33;98658.47;4936450;29;20028;-78
2021/09/14 07:56:32;;;;;;;7.18;4.07;;;;;;;24.55;53.25;98659.88;4936426;29;20031;-78
2021/09/14 07:58:57;;;;;;;7.32;4.10;;;;;;;24.01;54.99;98655.16;4950119;29;20114;-76
2021/09/14 08:01:22;;;;;;;4.25;3.85;;;;;;;23.09;57.67;98667.13;4954914;28;20035;-76
2021/09/14 08:03:48;;;;;;;6.55;3.80;;;;;;;23.43;56.76;98656.78;4919167;28;20385;-76
2021/09/14 08:06:13;;;;;;;4.75;4.22;;;;;;;23.30;55.48;98664.75;4954657;28;20393;-76
2021/09/14 08:08:39;;;;;;;6.53;4.53;;;;;;;23.30;57.67;98665.59;4934864;29;20023;-76
2021/09/14 08:11:04;;;;;;;7.05;4.47;;;;;;;23.96;56.73;98657.31;4935829;29;20031;-76
2021/09/14 08:13:29;;;;;;;19.08;7.63;;;;;;;25.71;52.48;98653.28;4935803;29;20031;-76
2021/09/14 08:15:55;;;;;;;15.13;4.90;;;;;;;27.85;46.68;98644.56;4934699;29;20034;-76
2021/09/14 08:18:20;;;;;;;10.52;5.15;;;;;;;29.58;43.26;98654.88;4935792;29;20030;-76
2021/09/14 08:20:46;;;;;;;8.57;4.20;;;;;;;31.25;38.20;98652.09;4934592;29;20103;-77
2021/09/14 08:23:11;;;;;;;4.43;3.17;;;;;;;30.90;38.63;98664.66;4935455;29;20024;-77
2021/09/14 08:25:36;;;;;;;5.07;3.20;;;;;;;32.11;37.66;98649.13;4935770;29;20042;-77
2021/09/14 08:28:02;;;;;;;3.92;2.92;;;;;;;32.28;36.40;98655.31;4935671;29;20080;-77
2021/09/14 08:30:27;;;;;;;6.60;3.45;;;;;;;33.04;34.75;98662.06;4935501;29;20027;-77
2021/09/14 08:32:53;;;;;;;3.95;3.15;;;;;;;32.92;34.71;98658.06;4935294;29;20016;-77
2021/09/14 08:35:19;;;;;;;3.75;3.20;;;;;;;32.29;35.87;98656.97;4935469;29;20020;-77
2021/09/14 08:37:44;;;;;;;4.07;3.10;;;;;;;32.59;35.63;98654.59;4935781;29;20506;-77
2021/09/14 08:40:10;;;;;;;4.07;2.90;;;;;;;34.93;31.30;98649.75;4935308;29;20066;-77
2021/09/14 08:42:37;;;;;;;3.72;2.58;;;;;;;35.26;30.68;98652.06;4935228;29;20050;-77
2021/09/14 08:45:08;;;;;;;4.93;2.70;;;;;;;36.43;29.21;98651.84;4934797;29;20119;-77
2021/09/14 08:47:36;;;;;;;3.00;2.20;;;;;;;36.65;28.72;98655.31;4935181;29;20099;-77
2021/09/14 08:50:01;;;;;;;2.97;2.25;;;;;;;34.95;30.32;98657.63;4935201;29;20028;-77
2021/09/14 08:52:26;;;;;;;4.60;2.72;;;;;;;36.72;28.41;98653.50;4935281;29;20026;-77
2021/09/14 08:54:52;;;;;;;6.13;2.60;;;;;;;36.96;28.33;98653.06;4935287;29;20114;-77
2021/09/14 08:57:17;;;;;;;4.32;2.65;;;;;;;37.53;27.69;98648.31;4935022;29;20054;-77
2021/09/14 08:59:47;;;;;;;8.57;2.60;;;;;;;38.15;26.15;98649.03;4935081;29;20074;-77
2021/09/14 09:02:16;;;;;;;3.17;2.30;;;;;;;37.61;27.10;98650.00;4934702;29;20478;-77
2021/09/14 09:05:03;;;;;;;4.53;2.67;;;;;;;34.13;31.15;98638.75;4935091;29;20031;-77
2021/09/14 09:07:36;;;;;;;2.72;2.30;;;;;;;34.54;31.29;98644.63;4934078;29;20410;-77
2021/09/14 09:10:15;;;;;;;5.10;2.60;;;;;;;35.55;29.51;98642.28;4934620;29;20159;-78
2021/09/14 09:12:46;;;;;;;7.43;2.83;;;;;;;35.22;30.76;98637.31;4934304;29;20024;-78
2021/09/14 09:15:41;;;;;;;5.43;2.75;;;;;;;35.75;29.38;98629.84;4934820;29;20028;-78
2021/09/14 09:18:11;;;;;;;5.68;2.38;;;;;;;36.32;28.84;98628.09;4922251;29;20046;-78
2021/09/14 09:20:40;;;;;;;6.95;2.33;;;;;;;36.47;28.19;98632.38;4934681;29;20114;-76
2021/09/14 09:23:12;;;;;;;2.40;2.20;;;;;;;35.91;28.13;98637.66;4934380;29;20051;-76
2021/09/14 09:25:39;;;;;;;3.22;2.55;;;;;;;37.62;26.45;98636.28;4933436;29;20032;-76
2021/09/14 09:28:06;;;;;;;4.63;2.97;;;;;;;36.72;26.91;98635.44;4934709;29;20027;-76
2021/09/14 09:30:34;;;;;;;3.25;2.50;;;;;;;36.07;28.19;98630.34;4933255;29;20027;-76
2021/09/14 09:33:03;;;;;;;3.15;2.28;;;;;;;37.34;27.99;98622.03;4934406;29;20031;-77
2021/09/14 09:35:36;;;;;;;2.40;2.20;;;;;;;36.89;26.58;98630.53;4934402;29;20070;-77
2021/09/14 09:38:03;;;;;;;4.43;2.40;;;;;;;37.63;26.25;98629.00;4934820;29;20119;-77
2021/09/14 09:40:42;;;;;;;4.55;2.60;;;;;;;37.44;26.75;98620.63;4934575;29;20063;-77
2021/09/14 09:43:09;;;;;;;2.40;2.20;;;;;;;38.16;25.71;98621.78;4932967;29;20452;-77
2021/09/14 09:45:43;;;;;;;2.60;2.20;;;;;;;39.28;24.71;98630.75;4934368;29;20055;-77
2021/09/14 09:48:10;;;;;;;3.65;2.42;;;;;;;38.95;24.48;98631.69;4934428;29;20433;-77
2021/09/14 09:50:41;;;;;;;2.95;2.53;;;;;;;36.18;27.48;98624.44;4934358;29;20512;-77
2021/09/14 09:53:07;;;;;;;3.88;2.30;;;;;;;36.61;27.16;98621.66;4933095;29;20366;-77
2021/09/14 09:55:36;;;;;;;3.53;2.22;;;;;;;37.26;26.00;98625.75;4934268;29;20028;-77
2021/09/14 09:58:05;;;;;;;3.65;2.20;;;;;;;37.74;26.22;98625.69;4934355;29;20489;-77
2021/09/14 10:00:34;;;;;;;5.20;2.20;;;;;;;38.78;25.05;98619.66;4934253;29;20056;-77
2021/09/14 10:03:04;;;;;;;3.70;2.45;;;;;;;39.26;23.82;98611.16;4934067;29;20472;-77
2021/09/14 10:05:34;;;;;;;6.35;2.30;;;;;;;40.07;23.14;98608.56;4934350;29;20066;-77
2021/09/14 10:08:22;;;;;;;6.32;2.50;;;;;;;37.90;24.50;98610.94;4934301;29;20057;-77
2021/09/14 10:10:53;;;;;;;3.83;2.45;;;;;;;36.61;26.87;98617.09;4934267;29;20035;-77
2021/09/14 10:13:32;;;;;;;4.35;2.35;;;;;;;36.88;26.46;98609.13;4934101;29;20028;-77
2021/09/14 10:15:58;;;;;;;4.60;2.42;;;;;;;38.02;24.82;98607.44;4934361;29;20027;-77
2021/09/14 10:18:31;;;;;;;4.53;2.17;;;;;;;37.27;26.09;98609.31;4934300;29;20034;-77
2021/09/14 10:20:57;;;;;;;4.57;2.33;;;;;;;37.29;27.02;98609.13;4934138;29;20063;-77
2021/09/14 10:23:30;;;;;;;4.28;2.45;;;;;;;38.48;25.23;98603.84;4933990;29;20039;-77
2021/09/14 10:26:05;;;;;;;2.88;2.30;;;;;;;37.33;26.06;98604.97;4922522;29;20106;-77
2021/09/14 10:28:44;;;;;;;2.75;2.53;;;;;;;38.22;25.19;98598.47;4937813;29;20051;-77
2021/09/14 10:31:21;;;;;;;4.60;2.63;;;;;;;38.48;24.51;98601.16;4938034;29;20031;-76
2021/09/14 10:33:46;;;;;;;7.72;2.03;;;;;;;37.21;26.36;98603.88;4937552;29;20019;-76
2021/09/14 10:36:13;;;;;;;4.60;3.03;;;;;;;38.16;24.90;98599.31;4937568;29;20061;-76
2021/09/14 10:38:48;;;;;;;3.05;2.30;;;;;;;35.34;28.41;98608.81;4937683;29;20055;-76
2021/09/14 10:41:15;;;;;;;5.22;2.58;;;;;;;33.18;32.36;98606.78;4937507;29;20110;-76
2021/09/14 10:43:55;;;;;;;3.42;2.40;;;;;;;35.24;29.76;98600.22;4937499;29;20028;-76
2021/09/14 10:46:22;;;;;;;3.92;2.75;;;;;;;36.04;28.72;98602.75;4937570;29;20034;-76
2021/09/14 10:48:49;;;;;;;3.55;2.60;;;;;;;36.85;27.54;98607.66;4937497;29;20110;-76
2021/09/14 10:51:16;;;;;;;2.30;2.05;;;;;;;36.47;28.60;98602.69;4937197;29;20031;-76
2021/09/14 10:53:53;;;;;;;3.72;2.42;;;;;;;36.76;27.39;98607.00;4937316;29;20082;-76
2021/09/14 10:56:19;;;;;;;3.25;2.72;;;;;;;36.10;28.54;98603.00;4935628;29;20027;-76
2021/09/14 10:58:45;;;;;;;4.30;2.55;;;;;;;35.32;28.91;98605.50;4935384;29;20392;-76
2021/09/14 11:01:22;;;;;;;6.97;2.72;;;;;;;35.40;29.96;98608.09;4935005;29;20031;-76
2021/09/14 11:04:00;;;;;;;7.05;2.55;;;;;;;36.94;28.04;98611.91;4935496;29;20545;-76
2021/09/14 11:06:27;;;;;;;4.32;2.72;;;;;;;37.02;26.88;98609.00;4922730;29;20044;-76
2021/09/14 11:09:04;;;;;;;8.55;2.25;;;;;;;36.92;27.53;98603.16;4935398;29;20056;-76
2021/09/14 11:11:30;;;;;;;2.65;2.42;;;;;;;36.19;27.69;98604.50;4935996;29;20106;-76
2021/09/14 11:13:56;;;;;;;2.65;2.45;;;;;;;36.56;28.13;98607.94;4937092;29;20561;-76
2021/09/14 11:16:22;;;;;;;4.72;2.45;;;;;;;36.47;28.55;98594.56;4937051;29;20027;-74
2021/09/14 11:18:48;;;;;;;7.63;2.50;;;;;;;36.73;27.99;98604.69;4936967;29;20020;-72
2021/09/14 11:21:16;;;;;;;6.05;2.60;;;;;;;36.13;29.34;98605.31;4936742;29;20024;-74
2021/09/14 11:23:48;;;;;;;5.22;2.50;;;;;;;35.23;30.10;98596.69;4936374;29;20028;-76
2021/09/14 11:26:16;;;;;;;5.00;3.10;;;;;;;34.90;31.33;98596.25;4934884;29;20034;-76
2021/09/14 11:28:56;;;;;;;7.35;2.85;;;;;;;35.64;30.76;98598.00;4935097;29;20027;-77
2021/09/14 11:31:21;;;;;;;3.50;2.90;;;;;;;34.69;31.76;98604.28;4933304;29;20110;-78
2021/09/14 11:33:48;;;;;;;4.15;2.88;;;;;;;34.68;31.38;98608.00;4931247;29;20114;-76
2021/09/14 11:36:14;;;;;;;5.00;2.95;;;;;;;34.83;31.38;98606.13;4934279;28;20055;-76
2021/09/14 11:38:40;;;;;;;4.82;3.10;;;;;;;35.15;31.25;98601.34;4935147;29;20524;-76
2021/09/14 11:41:10;;;;;;;9.80;3.67;;;;;;;35.31;30.19;98603.84;4936216;29;20102;-76
2021/09/14 11:43:37;;;;;;;5.25;2.80;;;;;;;34.98;30.43;98606.13;4936264;29;20028;-76
2021/09/14 11:46:20;;;;;;;6.18;2.97;;;;;;;34.67;31.82;98600.91;4936456;29;20458;-76
2021/09/14 11:48:54;;;;;;;5.47;3.10;;;;;;;35.15;31.44;98598.66;4936355;29;20374;-76
2021/09/14 11:51:19;;;;;;;4.13;3.53;;;;;;;35.48;30.47;98594.50;4936246;29;20386;-76
2021/09/14 11:53:50;;;;;;;4.22;2.85;;;;;;;35.74;30.89;98603.91;4934750;29;20024;-76
2021/09/14 11:56:17;;;;;;;5.43;3.25;;;;;;;35.07;30.98;98596.09;4936320;29;20030;-76
2021/09/14 11:58:47;;;;;;;5.53;3.00;;;;;;;36.65;29.31;98598.59;4936033;29;20028;-76
2021/09/14 12:01:14;;;;;;;3.17;2.80;;;;;;;35.93;28.94;98587.06;4935911;29;20074;-76
2021/09/14 12:03:51;;;;;;;4.70;3.13;;;;;;;36.26;30.54;98586.50;4935731;29;20028;-76
2021/09/14 12:06:33;;;;;;;4.05;2.65;;;;;;;34.30;32.22;98583.81;4931580;29;20027;-76
2021/09/14 12:09:01;;;;;;;4.97;3.00;;;;;;;31.45;37.28;98583.03;4929612;28;20437;-76
2021/09/14 12:11:29;;;;;;;3.88;2.88;;;;;;;31.64;37.85;98593.44;4935834;29;20067;-77
2021/09/14 12:13:57;;;;;;;5.53;3.53;;;;;;;30.45;39.99;98581.94;4934807;29;20027;-78
2021/09/14 12:16:29;;;;;;;4.22;2.85;;;;;;;30.72;39.97;98586.31;4934595;29;20038;-78
2021/09/14 12:19:05;;;;;;;4.85;3.40;;;;;;;30.83;39.37;98588.69;4935858;29;20030;-77
2021/09/14 12:21:30;;;;;;;6.07;3.08;;;;;;;30.64;40.07;98578.19;4934030;29;20047;-77
2021/09/14 12:23:57;;;;;;;7.75;3.70;;;;;;;29.19;42.76;98577.69;4935796;29;20032;-78
2021/09/14 12:26:29;;;;;;;3.35;3.05;;;;;;;29.75;42.12;98578.44;4935738;29;20686;-77
2021/09/14 12:28:56;;;;;;;3.75;3.35;;;;;;;29.85;40.91;98576.50;4935710;29;20158;-77
2021/09/14 12:31:22;;;;;;;7.90;3.40;;;;;;;29.91;41.09;98582.06;4935330;29;20028;-77
2021/09/14 12:33:48;;;;;;;3.97;3.08;;;;;;;29.94;42.17;98583.59;4935316;29;20027;-77
2021/09/14 12:36:13;;;;;;;4.25;3.50;;;;;;;29.53;41.56;98571.69;4935390;29;20054;-76
2021/09/14 12:38:39;;;;;;;5.43;3.65;;;;;;;28.87;42.72;98576.31;4935325;29;20039;-76
2021/09/14 12:41:05;;;;;;;6.05;3.50;;;;;;;28.47;44.32;98579.28;4935416;29;20032;-76
2021/09/14 12:43:31;;;;;;;5.32;4.80;;;;;;;28.79;44.08;98567.38;4935215;29;20489;-76
2021/09/14 12:45:58;;;;;;;4.93;3.28;;;;;;;28.51;44.48;98567.34;4935247;29;20087;-76
2021/09/14 12:48:23;;;;;;;6.72;3.53;;;;;;;28.32;44.53;98567.38;4933587;29;20030;-76
2021/09/14 12:50:49;;;;;;;6.15;3.67;;;;;;;28.20;44.60;98566.72;4935167;29;20023;-76
2021/09/14 12:53:14;;;;;;;7.47;4.30;;;;;;;28.57;44.36;98563.25;4933776;29;20544;-76
2021/09/14 12:55:40;;;;;;;5.22;3.40;;;;;;;28.78;43.88;98563.03;4933854;29;20031;-76
2021/09/14 12:58:07;;;;;;;5.20;3.17;;;;;;;28.18;44.74;98568.66;4933844;29;20027;-76
2021/09/14 13:00:33;;;;;;;5.72;3.90;;;;;;;28.14;46.32;98570.81;4935008;29;20053;-76
2021/09/14 13:02:59;;;;;;;10.15;4.82;;;;;;;27.88;46.66;98573.22;4934671;29;20051;-76
2021/09/14 13:05:29;;;;;;;6.97;4.55;;;;;;;27.16;49.12;98570.94;4934972;29;20062;-76
2021/09/14 13:07:55;;;;;;;9.02;3.80;;;;;;;27.17;50.00;98575.25;4934946;29;20484;-76
2021/09/14 13:10:21;;;;;;;4.85;3.97;;;;;;;27.31;48.07;98571.38;4933627;29;20086;-76
2021/09/14 13:12:48;;;;;;;6.07;4.38;;;;;;;27.45;49.04;98564.78;4934971;29;20019;-76
2021/09/14 13:17:59;;;;;;;6.10;4.32;;;;;;;27.98;47.69;98561.72;4935006;29;20046;-76
2021/09/14 13:20:25;;;;;;;8.73;4.28;;;;;;;27.72;48.96;98551.66;4934652;29;20478;-76
2021/09/14 13:22:50;;;;;;;10.88;4.28;;;;;;;27.79;48.34;98558.09;4934504;29;20083;-76
2021/09/14 13:25:16;;;;;;;5.45;4.30;;;;;;;28.27;47.41;98558.97;4934699;29;20031;-76
2021/09/14 13:27:41;;;;;;;8.30;3.95;;;;;;;28.37;47.41;98552.66;4934681;29;20047;-76
2021/09/14 13:30:07;;;;;;;4.20;3.80;;;;;;;29.26;44.63;98546.75;4934558;29;20031;-76
2021/09/14 13:32:33;;;;;;;8.07;4.15;;;;;;;27.92;47.37;98548.00;4934295;29;20035;-76
2021/09/14 13:34:58;;;;;;;6.43;4.53;;;;;;;28.57;46.77;98547.25;4934592;29;20031;-76
2021/09/14 13:37:23;;;;;;;10.00;4.68;;;;;;;28.41;46.71;98547.88;4934421;29;20031;-76
2021/09/14 13:39:49;;;;;;;7.38;3.83;;;;;;;29.18;45.57;98541.31;4934434;29;20015;-76
2021/09/14 13:42:22;;;;;;;7.72;4.18;;;;;;;29.28;45.19;98535.91;4933019;29;20115;-76
2021/09/14 13:47:20;;;;;;;11.27;4.72;;;;;;;28.20;47.32;98540.06;4934579;29;20031;-76
2021/09/14 13:49:47;;;;;;;11.88;5.13;;;;;;;27.85;47.84;98543.34;4932985;29;20023;-76
2021/09/14 13:52:12;;;;;;;7.38;4.55;;;;;;;27.81;48.13;98540.16;4934384;29;20496;-76
2021/09/14 13:54:38;;;;;;;6.72;4.10;;;;;;;28.03;47.72;98543.47;4934388;29;20031;-76
2021/09/14 13:57:04;;;;;;;11.85;4.55;;;;;;;27.73;48.06;98537.38;4933291;29;20156;-76
2021/09/14 13:59:30;;;;;;;5.32;4.03;;;;;;;28.16;48.32;98549.34;4937496;29;20070;-76
2021/09/14 14:01:56;;;;;;;7.38;4.20;;;;;;;28.52;46.61;98538.84;4938067;29;20072;-76
2021/09/14 14:04:21;;;;;;;8.13;4.75;;;;;;;28.22;48.06;98531.94;4938201;29;20023;-76
2021/09/14 14:06:49;;;;;;;7.07;3.97;;;;;;;28.43;47.18;98536.09;4938165;29;20028;-77
2021/09/14 14:09:14;;;;;;;7.68;4.53;;;;;;;27.40;48.53;98536.78;4936957;29;20020;-77
2021/09/14 14:11:40;;;;;;;13.30;5.20;;;;;;;27.13;49.52;98540.13;4937889;29;20158;-76
2021/09/14 14:14:05;;;;;;;11.80;5.15;;;;;;;27.36;48.15;98538.03;4938198;29;20032;-76
2021/09/14 14:16:31;;;;;;;6.20;4.55;;;;;;;27.56;48.48;98535.38;4938126;29;20026;-76
2021/09/14 14:18:57;;;;;;;8.15;4.40;;;;;;;27.86;47.38;98545.06;4937996;29;20028;-77
2021/09/14 14:21:23;;;;;;;6.50;4.13;;;;;;;27.60;47.75;98542.09;4937736;29;20038;-77
2021/09/14 14:23:48;;;;;;;6.90;4.15;;;;;;;27.13;49.39;98545.47;4936650;29;20034;-76
2021/09/14 14:26:14;;;;;;;10.05;7.63;;;;;;;27.93;47.57;98544.34;4937990;29;20039;-76
2021/09/14 14:28:39;;;;;;;6.70;4.30;;;;;;;27.91;47.54;98550.81;4937877;29;20091;-76
2021/09/14 14:31:05;;;;;;;6.18;4.03;;;;;;;27.83;47.99;98558.66;4937625;29;20070;-76
2021/09/14 14:33:31;;;;;;;11.32;4.38;;;;;;;27.24;49.07;98552.47;4936131;29;20147;-76
2021/09/14 14:35:56;;;;;;;10.40;4.60;;;;;;;27.45;49.46;98560.31;4937640;29;20030;-76
2021/09/14 14:38:21;;;;;;;7.32;4.45;;;;;;;27.43;49.21;98556.97;4937853;29;20027;-76
2021/09/14 14:40:47;;;;;;;8.20;4.45;;;;;;;27.25;50.67;98564.78;4936197;29;20474;-76
2021/09/14 14:43:12;;;;;;;10.48;4.25;;;;;;;27.02;50.17;98558.81;4937494;29;20039;-76
2021/09/14 14:45:38;;;;;;;8.25;4.15;;;;;;;27.06;50.07;98565.56;4937613;29;20032;-76
2021/09/14 14:48:08;;;;;;;6.70;4.43;;;;;;;27.03;50.06;98559.66;4937421;29;20448;-78
2021/09/14 14:50:33;;;;;;;5.38;4.18;;;;;;;27.08;50.22;98568.13;4937370;29;20031;-77
2021/09/14 14:52:58;;;;;;;7.05;4.75;;;;;;;26.84;51.88;98568.47;4936033;29;20098;-77
2021/09/14 14:55:24;;;;;;;6.20;4.43;;;;;;;27.47;50.89;98568.19;4937524;29;20087;-77
2021/09/14 14:57:49;;;;;;;7.95;4.90;;;;;;;27.37;50.84;98566.34;4937357;29;20067;-77
2021/09/14 15:00:15;;;;;;;9.52;4.32;;;;;;;27.55;50.06;98560.31;4937189;29;20079;-77
2021/09/14 15:02:40;;;;;;;12.35;4.78;;;;;;;26.86;51.24;98570.00;4936933;29;20075;-77
2021/09/14 15:05:07;;;;;;;14.48;4.63;;;;;;;27.02;51.07;98558.81;4937104;29;20032;-77
2021/09/14 15:07:33;;;;;;;5.35;4.55;;;;;;;27.39;49.61;98556.41;4937162;29;20031;-78
2021/09/14 15:09:59;;;;;;;5.68;4.43;;;;;;;27.53;49.72;98551.66;4936488;29;20496;-78
2021/09/14 15:12:25;;;;;;;7.55;4.43;;;;;;;27.21;50.46;98551.91;4937021;29;20063;-78
2021/09/14 15:14:50;;;;;;;7.55;4.53;;;;;;;27.13;50.54;98555.25;4937033;29;20051;-78
2021/09/14 15:17:15;;;;;;;6.65;4.20;;;;;;;27.38;50.41;98551.22;4936828;29;20023;-78
2021/09/14 15:19:42;;;;;;;5.97;4.25;;;;;;;27.69;49.66;98549.25;4936777;29;20058;-81
2021/09/14 15:22:08;;;;;;;10.98;4.95;;;;;;;27.65;49.58;98550.50;4935433;29;20086;-81
2021/09/14 15:24:34;;;;;;;9.05;4.13;;;;;;;27.23;50.47;98561.44;4936853;29;20031;-81
2021/09/14 15:27:00;;;;;;;6.45;4.40;;;;;;;26.87;51.37;98561.03;4936917;29;20035;-79
2021/09/14 15:29:26;;;;;;;11.57;4.43;;;;;;;27.40;50.72;98558.06;4936696;29;20036;-79
2021/09/14 15:31:53;;;;;;;6.10;4.35;;;;;;;27.29;50.01;98555.56;4936517;29;20143;-79
2021/09/14 15:34:19;;;;;;;8.20;4.65;;;;;;;27.31;49.58;98553.56;4936469;29;20046;-79
2021/09/14 15:36:45;;;;;;;7.28;4.20;;;;;;;27.02;50.56;98558.81;4935324;29;20055;-79
2021/09/14 15:39:11;;;;;;;11.45;4.53;;;;;;;27.00;50.47;98554.63;4933670;29;20023;-79
2021/09/14 15:41:36;;;;;;;7.63;4.88;;;;;;;26.94;50.58;98558.69;4934934;29;20106;-80
2021/09/14 15:44:02;;;;;;;6.90;4.63;;;;;;;26.82;51.05;98567.75;4935154;29;20024;-80
2021/09/14 15:46:27;;;;;;;6.28;4.30;;;;;;;26.80;51.47;98562.56;4936474;29;20031;-80
2021/09/14 15:48:52;;;;;;;8.90;4.20;;;;;;;26.69;52.08;98561.81;4936358;29;20043;-80
2021/09/14 15:51:18;;;;;;;8.60;4.43;;;;;;;25.98;53.03;98567.03;4936069;29;20039;-80